Time;durP1;ratioP1;P1;durP2;ratioP2;P2;SDS_P1;SDS_P2;PMS_P1;PMS_P2;Temp;Humidity;BMP_temperature;BMP_pressure;BME280_temperature;BME280_humidity;BME280_pressure;Samples;Min_cycle;Max_cycle;Signal;HPM_P1;HPM_P2
2022/09/09 00:01:44;;;;;;;;;43.40;37.40;;;;;25.23;56.53;98386.16;6162073;28;98931;-64
2022/09/09 00:04:59;;;;;;;;;39.50;35.00;;;;;25.23;56.93;98385.34;6162683;28;96607;-59
2022/09/09 00:08:05;;;;;;;;;34.50;32.25;;;;;25.21;56.55;98382.94;6160362;28;97792;-57
2022/09/09 00:11:14;;;;;;;;;32.00;30.00;;;;;25.18;56.79;98382.78;6162650;28;96815;-58
2022/09/09 00:14:28;;;;;;;;;29.80;29.00;;;;;25.18;56.97;98385.53;6177292;28;97520;-59
2022/09/09 00:17:39;;;;;;;;;29.50;28.75;;;;;25.14;57.16;98381.81;6162190;28;96677;-58
2022/09/09 00:20:50;;;;;;;;;47.00;40.00;;;;;25.14;56.67;98382.63;6162182;28;96591;-57
2022/09/09 00:23:55;;;;;;;;;31.00;30.00;;;;;25.13;57.06;98374.66;6160796;28;97659;-61
2022/09/09 00:27:06;;;;;;;;;33.50;32.00;;;;;25.12;57.03;98382.13;6162829;28;97502;-59
2022/09/09 00:30:19;;;;;;;;;24.75;23.75;;;;;25.01;57.13;98376.19;6161561;28;96954;-60
2022/09/09 00:33:25;;;;;;;;;32.60;31.00;;;;;25.12;56.99;98389.63;6159638;28;96652;-59
2022/09/09 00:36:29;;;;;;;;;34.80;32.60;;;;;25.13;56.72;98383.75;6162370;28;97419;-59
2022/09/09 00:39:38;;;;;;;;;37.00;33.00;;;;;25.14;56.62;98387.34;6162447;28;97453;-61
2022/09/09 00:42:45;;;;;;;;;30.80;29.40;;;;;25.14;57.01;98385.38;6163033;28;96927;-58
2022/09/09 00:46:18;;;;;;;;;16.60;16.60;;;;;25.13;56.83;98383.75;6160370;28;98123;-60
2022/09/09 00:49:31;;;;;;;;;32.60;31.40;;;;;25.13;56.89;98396.75;6129267;28;96837;-57
2022/09/09 00:52:45;;;;;;;;;21.75;21.50;;;;;24.92;56.69;98361.59;6161291;28;97685;-59
2022/09/09 00:55:57;;;;;;;;;53.60;45.20;;;;;25.11;56.87;98399.03;6162490;28;97047;-62
2022/09/09 00:59:18;;;;;;;;;32.60;31.60;;;;;25.10;56.77;98400.97;6165851;28;97262;-55
2022/09/09 01:02:29;;;;;;;;;33.75;32.00;;;;;25.10;56.84;98395.47;6164869;28;96465;-57
2022/09/09 01:05:43;;;;;;;;;54.50;45.50;;;;;25.07;56.50;98411.88;6165187;28;97080;-57
2022/09/09 01:09:09;;;;;;;;;39.60;35.20;;;;;25.09;56.52;98404.06;6164600;28;97028;-58
2022/09/09 01:12:18;;;;;;;;;30.00;27.50;;;;;25.07;56.56;98409.09;6166252;28;96751;-65
2022/09/09 01:15:31;;;;;;;;;35.80;33.00;;;;;25.06;56.56;98408.28;6164692;28;97702;-60
2022/09/09 01:18:39;;;;;;;;;34.20;32.40;;;;;25.05;56.46;98409.44;6164627;28;97449;-58
2022/09/09 01:21:50;;;;;;;;;43.60;37.40;;;;;25.03;56.34;98412.50;6164168;28;97421;-61
2022/09/09 01:25:22;;;;;;;;;45.00;37.60;;;;;25.06;56.21;98413.00;6164524;28;96702;-58
2022/09/09 01:28:38;;;;;;;;;25.80;24.40;;;;;25.03;56.25;98415.25;6156936;28;97399;-59
2022/09/09 01:31:55;;;;;;;;;50.75;42.75;;;;;25.03;55.98;98431.81;6176538;28;97198;-58
2022/09/09 01:34:59;;;;;;;;;35.60;33.00;;;;;25.00;55.98;98440.75;6164394;28;97602;-57
2022/09/09 01:38:02;;;;;;;;;44.60;38.60;;;;;24.99;55.75;98436.38;6164298;28;97705;-59
2022/09/09 01:41:06;;;;;;;;;28.40;27.60;;;;;25.00;56.13;98442.69;6164270;28;97315;-57
2022/09/09 01:44:28;;;;;;;;;35.25;33.00;;;;;24.99;55.93;98446.59;6162234;28;97087;-57
2022/09/09 01:47:31;;;;;;;;;37.80;34.20;;;;;25.00;55.81;98448.22;6162914;28;96834;-58
2022/09/09 01:50:59;;;;;;;;;54.00;45.25;;;;;24.98;55.67;98454.03;6164605;28;96597;-57
2022/09/09 01:54:04;;;;;;;;;37.40;33.00;;;;;24.84;55.69;98434.06;6160624;28;97885;-58
2022/09/09 01:57:17;;;;;;;;;45.20;39.40;;;;;24.97;55.88;98448.88;6160926;28;97572;-57
2022/09/09 02:00:23;;;;;;;;;24.20;23.80;;;;;24.94;55.69;98453.06;6164329;28;97504;-58
2022/09/09 02:03:34;;;;;;;;;35.00;33.00;;;;;24.73;55.59;98418.22;6163979;28;97015;-58
2022/09/09 02:06:56;;;;;;;;;44.75;38.00;;;;;24.80;55.41;98426.78;6162839;28;97402;-58
2022/09/09 02:10:11;;;;;;;;;46.33;40.00;;;;;24.83;55.46;98450.94;6163795;28;97375;-60
2022/09/09 02:13:22;;;;;;;;;24.50;24.50;;;;;24.84;55.39;98455.31;6164189;28;96517;-58
2022/09/09 02:16:34;;;;;;;;;41.40;36.20;;;;;24.84;55.24;98460.84;6162939;28;98272;-58
2022/09/09 02:19:41;;;;;;;;;40.40;35.20;;;;;24.76;55.00;98456.97;6163058;28;97157;-59
2022/09/09 02:22:57;;;;;;;;;36.20;33.20;;;;;24.80;55.02;98468.13;6164055;28;97518;-54
2022/09/09 02:26:04;;;;;;;;;11.75;10.75;;;;;24.77;54.96;98471.56;6145937;28;97901;-60
2022/09/09 02:29:13;;;;;;;;;33.50;31.50;;;;;24.76;55.22;98470.75;6161796;28;96803;-57
2022/09/09 02:32:26;;;;;;;;;45.40;39.20;;;;;24.73;55.38;98484.38;6161815;28;97086;-61
2022/09/09 02:35:32;;;;;;;;;49.60;42.60;;;;;24.71;55.61;98483.88;6162213;28;97164;-60
2022/09/09 02:38:41;;;;;;;;;39.00;35.00;;;;;24.69;55.50;98486.94;6162996;28;97420;-58
2022/09/09 02:41:48;;;;;;;;;20.75;19.75;;;;;24.68;55.60;98495.56;6162575;28;97229;-55
2022/09/09 02:44:52;;;;;;;;;32.40;30.40;;;;;24.67;55.49;98496.69;6162744;28;98142;-58
2022/09/09 02:48:04;;;;;;;;;27.20;25.20;;;;;24.67;55.54;98502.19;6160480;28;97106;-58
2022/09/09 02:51:16;;;;;;;;;29.00;29.00;;;;;24.64;55.53;98506.41;6163515;28;96980;-60
2022/09/09 02:54:30;;;;;;;;;6.50;6.25;;;;;24.64;55.67;98509.16;6163320;28;96593;-61
2022/09/09 02:57:38;;;;;;;;;40.00;35.00;;;;;24.61;55.80;98515.31;6162354;28;96866;-60
2022/09/09 03:00:42;;;;;;;;;41.20;36.20;;;;;24.58;55.70;98511.25;6163165;28;96813;-56
2022/09/09 03:03:47;;;;;;;;;34.20;31.60;;;;;24.56;55.71;98507.22;6161697;28;96758;-57
2022/09/09 03:06:52;;;;;;;;;40.67;35.67;;;;;24.52;55.47;98509.00;6162891;28;96933;-58
2022/09/09 03:09:58;;;;;;;;;15.75;14.50;;;;;24.50;55.34;98519.50;6178220;28;98165;-59
2022/09/09 03:13:04;;;;;;;;;37.00;34.00;;;;;24.39;55.48;98493.38;6161492;28;97710;-59
2022/09/09 03:16:11;;;;;;;;;31.75;30.50;;;;;24.47;55.45;98509.16;6166506;28;97096;-58
2022/09/09 03:19:21;;;;;;;;;31.00;28.40;;;;;24.46;55.13;98504.75;6160855;28;97424;-59
2022/09/09 03:22:26;;;;;;;;;49.00;42.00;;;;;24.39;55.29;98507.16;6161139;28;97107;-59
2022/09/09 03:25:31;;;;;;;;;20.00;19.40;;;;;24.40;55.30;98501.34;6161483;28;96607;-60
2022/09/09 03:28:37;;;;;;;;;32.20;30.80;;;;;24.39;55.25;98518.19;6160363;28;97456;-57
2022/09/09 03:31:42;;;;;;;;;25.00;25.00;;;;;24.35;55.27;98508.94;6160631;28;97099;-57
2022/09/09 03:34:49;;;;;;;;;28.20;28.20;;;;;24.34;55.45;98510.88;6139769;28;97365;-57
2022/09/09 03:37:54;;;;;;;;;35.00;33.00;;;;;24.33;55.35;98508.47;6160836;28;96652;-59
2022/09/09 03:40:58;;;;;;;;;32.50;31.00;;;;;24.32;55.22;98517.84;6161884;28;96666;-58
2022/09/09 03:44:02;;;;;;;;;33.75;32.00;;;;;24.31;55.26;98514.28;6161274;28;96709;-58
2022/09/09 03:47:11;;;;;;;;;37.00;33.60;;;;;24.31;55.09;98517.03;6159304;28;96974;-57
2022/09/09 03:50:18;;;;;;;;;34.50;32.50;;;;;24.30;55.05;98518.16;6158582;28;97515;-57
2022/09/09 03:53:24;;;;;;;;;36.80;33.20;;;;;24.29;55.03;98530.31;6159176;28;97383;-58
2022/09/09 03:56:28;;;;;;;;;33.00;32.00;;;;;24.28;55.12;98528.72;6158838;28;96486;-58
2022/09/09 03:59:32;;;;;;;;;41.20;36.20;;;;;24.28;55.05;98523.22;6159793;28;97503;-59
2022/09/09 04:02:35;;;;;;;;;35.00;32.80;;;;;24.29;54.86;98529.53;6158265;28;97075;-56
2022/09/09 04:05:42;;;;;;;;;40.00;35.60;;;;;24.28;54.73;98534.22;6158316;28;98535;-56
2022/09/09 04:08:48;;;;;;;;;45.00;39.00;;;;;24.28;54.74;98536.16;6158189;28;96857;-58
2022/09/09 04:11:52;;;;;;;;;39.25;35.25;;;;;24.25;54.70;98529.34;6159064;28;97414;-56
2022/09/09 04:14:56;;;;;;;;;46.50;40.25;;;;;24.24;54.66;98533.22;6158747;28;97388;-57
2022/09/09 04:18:01;;;;;;;;;36.60;33.60;;;;;24.17;54.67;98524.63;6162122;28;97084;-58
2022/09/09 04:21:06;;;;;;;;;43.00;37.40;;;;;24.23;54.43;98541.81;6159398;28;97197;-59
2022/09/09 04:24:11;;;;;;;;;42.20;36.80;;;;;24.23;54.71;98530.81;6142167;28;97595;-58
2022/09/09 04:27:14;;;;;;;;;41.60;36.20;;;;;24.22;54.48;98535.50;6161327;28;97436;-57
2022/09/09 04:30:17;;;;;;;;;35.80;32.80;;;;;24.21;54.43;98531.13;6147270;28;97216;-58
2022/09/09 04:33:21;;;;;;;;;39.00;34.50;;;;;24.21;54.49;98542.13;6159646;28;98592;-55
2022/09/09 04:36:28;;;;;;;;;46.00;39.80;;;;;24.22;54.23;98532.75;6161160;28;96622;-57
2022/09/09 04:39:35;;;;;;;;;38.00;34.75;;;;;24.24;54.34;98535.19;6151976;28;97517;-57
2022/09/09 04:42:43;;;;;;;;;38.50;35.00;;;;;24.25;54.37;98536.78;6149702;28;96768;-55
2022/09/09 04:45:51;;;;;;;;;39.00;35.00;;;;;24.27;54.28;98538.09;6161842;28;98184;-58
2022/09/09 04:48:58;;;;;;;;;41.00;36.00;;;;;24.30;54.18;98534.69;6171093;28;97184;-58
2022/09/09 04:52:07;;;;;;;;;39.00;35.00;;;;;24.34;54.07;98540.38;6174774;28;97522;-57
2022/09/09 04:55:12;;;;;;;;;40.50;36.00;;;;;24.38;54.21;98549.66;6180536;28;97626;-56
2022/09/09 04:58:21;;;;;;;;;46.00;39.80;;;;;24.40;54.17;98539.91;6163850;28;96853;-59
2022/09/09 05:01:25;;;;;;;;;37.20;33.40;;;;;24.44;54.16;98551.09;6156373;28;97475;-59
2022/09/09 05:04:35;;;;;;;;;37.50;32.75;;;;;24.46;54.43;98552.41;6151467;28;97533;-57
2022/09/09 05:07:41;;;;;;;;;36.60;33.20;;;;;24.49;54.51;98561.97;6162543;28;97491;-58
2022/09/09 05:10:44;;;;;;;;;33.60;32.00;;;;;24.51;54.27;98559.72;6158812;28;97241;-56
2022/09/09 05:13:49;;;;;;;;;9.20;8.60;;;;;24.54;54.38;98561.81;6163043;28;98456;-53
2022/09/09 05:16:54;;;;;;;;;30.50;30.00;;;;;24.56;54.46;98556.81;6158835;28;96879;-58
2022/09/09 05:19:58;;;;;;;;;31.60;30.60;;;;;24.59;54.14;98559.72;6158880;28;98567;-57
2022/09/09 05:23:03;;;;;;;;;38.25;34.75;;;;;24.63;53.91;98559.09;6163633;28;97474;-59
2022/09/09 05:26:14;;;;;;;;;35.00;32.40;;;;;24.62;54.06;98555.53;6161882;28;97498;-59
2022/09/09 05:29:21;;;;;;;;;10.20;9.60;;;;;24.64;53.56;98556.00;6164006;28;96994;-59
2022/09/09 05:32:25;;;;;;;;;21.60;21.00;;;;;24.68;53.56;98562.50;6163820;28;96951;-62
2022/09/09 05:35:29;;;;;;;;;51.20;43.20;;;;;24.71;53.36;98563.81;6164010;28;97536;-58
2022/09/09 05:38:35;;;;;;;;;39.00;34.40;;;;;24.76;53.53;98558.16;6161594;28;97079;-58
2022/09/09 05:41:39;;;;;;;;;41.25;36.00;;;;;24.80;53.61;98561.88;6162229;28;96689;-59
2022/09/09 05:44:44;;;;;;;;;50.25;43.00;;;;;24.89;53.60;98558.03;6162384;28;97073;-57
2022/09/09 05:47:53;;;;;;;;;35.75;32.75;;;;;24.94;53.52;98562.56;6146574;28;97339;-59
2022/09/09 05:50:57;;;;;;;;;42.80;37.40;;;;;25.09;53.40;98562.09;6163847;28;97442;-58
2022/09/09 05:54:02;;;;;;;;;32.25;30.50;;;;;25.24;53.20;98563.56;6162928;28;97384;-59
2022/09/09 05:57:09;;;;;;;;;36.25;33.00;;;;;25.32;53.08;98571.81;6163908;28;96570;-57
2022/09/09 06:00:14;;;;;;;;;49.75;42.00;;;;;25.49;52.25;98575.69;6162307;28;97434;-58
2022/09/09 06:03:23;;;;;;;;;14.75;14.50;;;;;25.66;51.83;98587.56;6161707;28;98102;-59
2022/09/09 06:06:31;;;;;;;;;28.40;27.60;;;;;25.81;51.68;98583.47;6161803;28;97396;-58
2022/09/09 06:09:37;;;;;;;;;41.20;36.20;;;;;25.98;50.87;98597.25;6162259;28;96994;-60
2022/09/09 06:12:42;;;;;;;;;26.80;26.80;;;;;26.09;50.18;98598.50;6164390;28;97921;-59
2022/09/09 06:15:50;;;;;;;;;15.60;15.60;;;;;26.23;49.53;98601.91;6160853;28;97434;-60
2022/09/09 06:18:57;;;;;;;;;34.40;32.20;;;;;26.38;49.18;98608.81;6176754;28;97453;-59
2022/09/09 06:22:02;;;;;;;;;30.00;28.00;;;;;26.53;49.16;98605.50;6160571;28;97038;-59
2022/09/09 06:25:10;;;;;;;;;45.40;39.20;;;;;26.71;48.71;98607.03;6170190;28;96601;-60
2022/09/09 06:28:15;;;;;;;;;30.60;29.60;;;;;26.89;48.34;98604.97;6170521;28;96983;-57
2022/09/09 06:31:21;;;;;;;;;28.80;28.20;;;;;27.10;48.06;98597.50;6161682;28;97403;-58
2022/09/09 06:34:30;;;;;;;;;32.00;30.25;;;;;27.30;47.68;98593.13;6163735;28;96503;-59
2022/09/09 06:37:36;;;;;;;;;34.40;32.40;;;;;27.49;46.90;98599.00;6161713;28;96810;-59
2022/09/09 06:40:41;;;;;;;;;32.75;30.75;;;;;27.61;46.06;98595.50;6162993;28;97447;-57
2022/09/09 06:43:45;;;;;;;;;36.25;33.25;;;;;27.62;45.56;98580.47;6162315;28;96533;-59
2022/09/09 06:46:49;;;;;;;;;30.00;30.00;;;;;27.83;44.73;98597.03;6162058;28;96906;-59
2022/09/09 06:49:53;;;;;;;;;11.50;10.00;;;;;27.88;44.53;98600.41;6161197;28;97027;-62
2022/09/09 06:52:57;;;;;;;;;36.50;33.25;;;;;27.96;44.27;98598.69;6160678;28;96729;-59
2022/09/09 06:56:03;;;;;;;;;34.00;31.75;;;;;27.91;43.65;98587.81;6161988;28;98051;-62
2022/09/09 06:59:08;;;;;;;;;48.33;41.67;;;;;28.08;44.15;98598.72;6177834;28;96709;-58
2022/09/09 07:02:12;;;;;;;;;32.00;30.80;;;;;28.06;43.47;98581.63;6161008;28;97254;-59
2022/09/09 07:05:16;;;;;;;;;26.80;26.40;;;;;28.21;43.75;98589.28;6162620;28;96906;-59
2022/09/09 07:08:21;;;;;;;;;23.80;23.80;;;;;28.43;43.11;98591.66;6163064;28;97477;-58
2022/09/09 07:11:28;;;;;;;;;38.60;34.80;;;;;28.56;42.72;98595.22;6161470;28;96680;-59
2022/09/09 07:14:32;;;;;;;;;43.60;37.80;;;;;28.72;43.79;98587.84;6161284;28;96789;-57
2022/09/09 07:17:39;;;;;;;;;32.60;31.60;;;;;28.84;43.21;98584.22;6177533;28;98100;-59
2022/09/09 07:20:43;;;;;;;;;35.75;33.00;;;;;29.00;41.77;98576.81;6177185;28;97429;-57
2022/09/09 07:23:47;;;;;;;;;17.80;17.80;;;;;29.25;41.40;98583.09;6161232;28;96917;-56
2022/09/09 07:26:51;;;;;;;;;23.20;23.20;;;;;29.39;41.96;98583.53;6162215;28;96782;-61
2022/09/09 07:29:57;;;;;;;;;37.00;34.25;;;;;29.53;40.31;98588.69;6160842;28;96756;-60
2022/09/09 07:33:02;;;;;;;;;43.40;37.40;;;;;29.61;40.21;98583.00;6161743;28;97198;-58
2022/09/09 07:36:09;;;;;;;;;31.00;30.40;;;;;29.79;40.21;98585.44;6160446;28;97536;-58
2022/09/09 07:39:17;;;;;;;;;26.60;26.00;;;;;29.92;39.45;98592.59;6160383;28;97244;-61
2022/09/09 07:42:26;;;;;;;;;28.60;28.60;;;;;30.03;39.34;98596.47;6159621;28;98276;-58
2022/09/09 07:45:30;;;;;;;;;27.00;27.00;;;;;30.00;39.53;98575.75;6160658;28;98383;-58
2022/09/09 07:48:34;;;;;;;;;25.00;25.00;;;;;30.24;38.49;98597.03;6160336;28;96999;-59
2022/09/09 07:51:40;;;;;;;;;29.75;29.00;;;;;30.44;38.33;98604.28;6160134;28;97546;-59
2022/09/09 07:54:45;;;;;;;;;40.60;36.00;;;;;30.63;38.13;98611.94;6158906;28;96544;-55
2022/09/09 07:57:50;;;;;;;;;40.00;36.00;;;;;30.76;37.94;98595.94;6158087;28;96960;-58
2022/09/09 08:00:54;;;;;;;;;33.50;32.00;;;;;31.03;36.82;98600.59;6159173;28;97768;-60
2022/09/09 08:04:01;;;;;;;;;16.40;16.00;;;;;31.21;36.20;98606.53;6158799;28;98122;-60
2022/09/09 08:07:05;;;;;;;;;24.80;24.60;;;;;31.36;36.16;98602.88;6159968;28;96939;-58
2022/09/09 08:10:15;;;;;;;;;24.40;24.00;;;;;31.53;35.49;98602.44;6160239;28;97013;-60
2022/09/09 08:13:23;;;;;;;;;30.60;29.40;;;;;31.65;34.72;98607.91;6160381;28;96646;-60
2022/09/09 08:16:31;;;;;;;;;24.60;24.00;;;;;31.83;34.92;98609.06;6160525;28;97436;-60
2022/09/09 08:19:36;;;;;;;;;21.50;21.50;;;;;32.06;34.60;98613.88;6160191;28;97668;-61
2022/09/09 08:22:45;;;;;;;;;17.00;17.00;;;;;32.26;33.84;98618.22;6159943;28;97539;-60
2022/09/09 08:25:49;;;;;;;;;23.00;23.00;;;;;32.40;32.96;98617.69;6160055;28;96990;-59
2022/09/09 08:28:57;;;;;;;;;22.20;22.20;;;;;32.57;33.47;98617.97;6159852;28;97426;-60
2022/09/09 08:32:02;;;;;;;;;20.00;19.00;;;;;32.80;33.30;98615.16;6161097;28;97662;-59
2022/09/09 08:35:07;;;;;;;;;25.00;25.00;;;;;33.02;33.20;98614.31;6159863;28;96934;-58
2022/09/09 08:38:11;;;;;;;;;22.20;22.00;;;;;33.05;31.81;98626.72;6161043;28;97063;-60
2022/09/09 08:41:38;;;;;;;;;18.75;18.75;;;;;33.08;31.82;98623.19;6160653;28;97460;-61
2022/09/09 08:44:56;;;;;;;;;17.00;17.00;;;;;33.21;32.22;98618.19;6160143;28;96610;-59
2022/09/09 08:48:22;;;;;;;;;24.50;24.00;;;;;33.45;31.63;98632.50;6160138;28;97492;-63
2022/09/09 08:51:30;;;;;;;;;13.50;13.50;;;;;33.56;30.65;98629.06;6143595;28;96759;-64
2022/09/09 08:54:36;;;;;;;;;12.00;12.00;;;;;33.77;31.62;98632.16;6160223;28;97049;-61
2022/09/09 08:58:00;;;;;;;;;17.67;17.33;;;;;33.90;30.61;98625.09;6142438;28;98349;-59
2022/09/09 09:01:26;;;;;;;;;7.20;7.20;;;;;33.87;29.16;98623.84;6159973;28;97410;-61
2022/09/09 09:04:54;;;;;;;;;15.00;15.00;;;;;33.84;29.86;98629.41;6143650;28;97945;-60
2022/09/09 09:08:09;;;;;;;;;15.75;15.50;;;;;33.91;29.61;98629.50;6159305;28;97433;-61
2022/09/09 09:11:13;;;;;;;;;16.60;16.00;;;;;33.89;29.45;98634.66;6159882;28;96977;-59
2022/09/09 09:14:23;;;;;;;;;26.50;26.50;;;;;33.81;29.36;98633.00;6142675;28;98447;-59
2022/09/09 09:17:38;;;;;;;;;14.00;13.50;;;;;33.77;29.30;98626.56;6160989;28;96901;-59
2022/09/09 09:20:52;;;;;;;;;18.40;18.00;;;;;33.75;29.06;98624.13;6162947;28;97405;-59
2022/09/09 09:23:59;;;;;;;;;19.00;18.25;;;;;33.85;28.43;98617.84;6146694;28;98356;-60
2022/09/09 09:27:13;;;;;;;;;21.50;20.50;;;;;34.08;29.83;98619.69;6164024;28;97934;-55
2022/09/09 09:30:24;;;;;;;;;17.00;17.00;;;;;34.38;28.67;98630.81;6163548;28;97586;-61
2022/09/09 09:33:49;;;;;;;;;14.00;14.00;;;;;34.55;28.78;98599.38;6163150;28;97065;-59
2022/09/09 09:36:58;;;;;;;;;17.00;16.00;;;;;34.92;28.00;98627.28;6161831;28;96927;-60
2022/09/09 09:40:12;;;;;;;;;25.25;25.25;;;;;34.94;26.98;98622.09;6161080;28;96956;-60
2022/09/09 09:43:21;;;;;;;;;17.25;17.25;;;;;34.90;27.33;98618.44;6161489;28;98099;-58
2022/09/09 09:46:26;;;;;;;;;14.20;14.20;;;;;34.95;27.42;98621.69;6161566;28;97867;-61
2022/09/09 09:49:37;;;;;;;;;13.40;13.40;;;;;35.02;27.50;98623.75;6161493;28;97210;-58
2022/09/09 09:52:44;;;;;;;;;17.60;17.60;;;;;35.14;28.03;98617.78;6163251;28;97321;-58
2022/09/09 09:55:54;;;;;;;;;16.00;16.00;;;;;35.17;26.94;98620.69;6163125;28;96890;-60
2022/09/09 09:58:58;;;;;;;;;15.40;15.40;;;;;35.17;26.71;98619.88;6163325;28;96613;-58
2022/09/09 10:02:18;;;;;;;;;15.00;15.00;;;;;35.17;26.09;98623.47;6147402;28;97642;-65
2022/09/09 10:05:28;;;;;;;;;14.50;14.50;;;;;35.28;26.43;98617.94;6164214;28;96902;-59
2022/09/09 10:08:47;;;;;;;;;11.20;11.20;;;;;35.52;25.57;98616.44;6164067;28;96608;-58
2022/09/09 10:12:00;;;;;;;;;11.60;11.60;;;;;35.81;25.60;98611.78;6164669;28;97877;-60
2022/09/09 10:15:13;;;;;;;;;12.20;12.20;;;;;35.96;25.29;98603.00;6165269;28;97162;-62
2022/09/09 10:18:37;;;;;;;;;16.00;16.00;;;;;35.99;25.34;98607.00;6165100;28;97562;-61
2022/09/09 10:22:06;;;;;;;;;10.00;10.00;;;;;35.91;24.66;98609.00;6163244;28;97767;-61
2022/09/09 10:25:28;;;;;;;;;14.60;14.60;;;;;35.83;25.16;98607.34;6152531;28;96838;-60
2022/09/09 10:28:47;;;;;;;;;15.00;14.60;;;;;35.93;25.90;98623.41;6164453;28;97433;-60
2022/09/09 10:32:00;;;;;;;;;13.75;13.00;;;;;35.97;25.10;98621.41;6164481;28;96440;-60
2022/09/09 10:35:11;;;;;;;;;12.75;12.75;;;;;35.96;24.69;98613.41;6155880;28;96553;-60
2022/09/09 10:38:18;;;;;;;;;13.00;13.00;;;;;35.82;24.83;98622.59;6140632;28;97446;-59
2022/09/09 10:41:35;;;;;;;;;13.67;13.67;;;;;35.78;25.00;98626.56;6160328;28;98818;-59
2022/09/09 10:45:07;;;;;;;;;13.00;12.00;;;;;35.81;24.35;98623.00;6164139;28;98080;-59
2022/09/09 10:48:30;;;;;;;;;12.50;12.50;;;;;35.86;23.76;98603.78;6162167;28;98066;-58
2022/09/09 10:51:42;;;;;;;;;9.00;9.00;;;;;36.18;23.81;98615.09;6164360;28;97398;-60
2022/09/09 10:54:57;;;;;;;;;8.80;8.00;;;;;36.49;23.47;98613.53;6164569;28;97031;-59
2022/09/09 10:58:05;;;;;;;;;10.60;10.00;;;;;36.80;23.09;98615.53;6163756;28;97411;-61
2022/09/09 11:01:16;;;;;;;;;9.00;8.00;;;;;37.04;23.05;98622.34;6163020;28;97194;-60
2022/09/09 11:04:24;;;;;;;;;8.20;8.20;;;;;37.27;22.83;98621.91;6152041;28;97487;-60
2022/09/09 11:07:35;;;;;;;;;10.20;10.20;;;;;37.42;22.38;98615.03;6162858;28;97580;-64
2022/09/09 11:10:46;;;;;;;;;9.25;9.25;;;;;37.59;22.73;98616.19;6163350;28;97656;-60
2022/09/09 11:13:56;;;;;;;;;12.00;12.00;;;;;37.63;22.04;98614.97;6163529;28;97006;-59
2022/09/09 11:17:04;;;;;;;;;9.20;9.20;;;;;37.63;21.87;98612.16;6163077;28;97191;-61
2022/09/09 11:20:13;;;;;;;;;9.50;9.50;;;;;37.64;22.17;98625.00;6159846;28;97678;-59
2022/09/09 11:23:21;;;;;;;;;7.60;7.60;;;;;37.64;21.90;98616.56;6162092;28;97431;-61
2022/09/09 11:26:33;;;;;;;;;9.00;9.00;;;;;37.67;21.74;98604.53;6161806;28;97449;-59
2022/09/09 11:30:10;;;;;;;;;7.00;7.00;;;;;37.68;22.07;98602.50;6162031;28;97234;-60
2022/09/09 11:33:31;;;;;;;;;10.00;9.00;;;;;37.76;22.64;98611.72;6156276;28;96582;-62
2022/09/09 11:36:57;;;;;;;;;8.33;8.33;;;;;37.87;22.33;98612.47;6179811;28;96575;-59
2022/09/09 11:40:18;;;;;;;;;9.00;9.00;;;;;37.86;21.73;98608.03;6162903;28;97475;-60
2022/09/09 11:43:26;;;;;;;;;8.00;7.75;;;;;37.77;21.05;98611.31;6163616;28;97531;-58
2022/09/09 11:46:36;;;;;;;;;6.00;6.00;;;;;37.63;21.01;98606.53;6164025;28;97466;-59
2022/09/09 11:49:42;;;;;;;;;8.00;8.00;;;;;37.47;21.19;98605.38;6178575;28;96884;-60
2022/09/09 11:52:48;;;;;;;;;6.00;6.00;;;;;37.27;20.92;98603.03;6163694;28;97116;-61
2022/09/09 11:56:06;;;;;;;;;7.75;6.75;;;;;37.07;21.18;98599.06;6160045;28;96870;-59
2022/09/09 11:59:22;;;;;;;;;9.00;9.00;;;;;36.75;21.08;98589.88;6139791;28;97364;-59
2022/09/09 12:02:30;;;;;;;;;7.00;7.00;;;;;36.63;21.45;98605.13;6163456;28;96931;-59
2022/09/09 12:05:41;;;;;;;;;13.40;13.40;;;;;36.43;21.34;98606.69;6156443;28;97367;-60
2022/09/09 12:08:49;;;;;;;;;17.00;17.00;;;;;36.24;22.10;98607.09;6138785;28;97152;-59
2022/09/09 12:11:53;;;;;;;;;14.40;14.40;;;;;36.02;22.52;98609.81;6139302;28;96626;-60
2022/09/09 12:15:20;;;;;;;;;16.00;16.00;;;;;35.80;23.14;98599.75;6138927;28;98605;-60
2022/09/09 12:18:26;;;;;;;;;19.00;19.00;;;;;35.56;22.87;98604.03;6158114;28;97441;-60
2022/09/09 12:21:38;;;;;;;;;14.25;14.00;;;;;35.34;24.01;98599.53;6178383;28;97751;-60
2022/09/09 12:24:49;;;;;;;;;17.40;16.40;;;;;35.17;23.79;98601.06;6163025;28;97492;-60
2022/09/09 12:28:04;;;;;;;;;15.60;15.60;;;;;35.01;23.51;98596.91;6162842;28;97419;-59
2022/09/09 12:31:17;;;;;;;;;12.60;12.00;;;;;34.97;23.72;98593.28;6166833;28;96924;-60
2022/09/09 12:34:32;;;;;;;;;18.00;18.00;;;;;34.97;23.20;98604.50;6161647;28;97024;-59
2022/09/09 12:37:39;;;;;;;;;13.20;13.20;;;;;34.91;23.40;98601.25;6160985;28;97304;-61
2022/09/09 12:40:42;;;;;;;;;13.00;13.00;;;;;34.87;24.39;98594.03;6161671;28;97041;-60
2022/09/09 12:43:46;;;;;;;;;12.75;12.00;;;;;34.80;23.61;98597.56;6163259;28;97856;-58
2022/09/09 12:46:52;;;;;;;;;17.50;17.00;;;;;34.68;24.24;98597.91;6160392;28;97049;-64
2022/09/09 12:49:56;;;;;;;;;18.40;18.00;;;;;34.38;24.42;98566.44;6160315;28;97025;-62
2022/09/09 12:53:03;;;;;;;;;15.40;15.40;;;;;34.47;24.75;98595.69;6162922;28;97035;-62
2022/09/09 12:56:09;;;;;;;;;13.50;13.00;;;;;34.38;24.48;98603.63;6172955;28;97752;-63
2022/09/09 12:59:24;;;;;;;;;13.00;13.00;;;;;34.33;24.24;98599.19;6169968;28;96875;-63
2022/09/09 13:02:29;;;;;;;;;11.00;11.00;;;;;34.19;24.83;98587.88;6150765;28;97406;-61
2022/09/09 13:05:37;;;;;;;;;15.00;15.00;;;;;34.36;24.33;98587.19;6164580;28;97029;-59
2022/09/09 13:08:40;;;;;;;;;12.50;12.50;;;;;34.41;24.13;98580.44;6164740;28;96947;-61
2022/09/09 13:11:47;;;;;;;;;13.40;13.40;;;;;34.45;24.66;98572.91;6164164;28;97060;-62
2022/09/09 13:14:55;;;;;;;;;8.00;8.00;;;;;34.48;23.43;98562.91;6164798;28;96887;-59
2022/09/09 13:18:02;;;;;;;;;17.00;17.00;;;;;34.51;22.97;98567.72;6163393;28;96554;-61
2022/09/09 13:21:07;;;;;;;;;13.00;13.00;;;;;34.47;22.93;98567.69;6165389;28;96646;-63
2022/09/09 13:24:29;;;;;;;;;15.00;15.00;;;;;34.40;23.44;98566.84;6166573;28;97062;-56
2022/09/09 13:27:34;;;;;;;;;15.50;15.00;;;;;34.28;23.10;98563.16;6166126;28;97169;-57
2022/09/09 13:30:40;;;;;;;;;16.00;16.00;;;;;34.40;23.06;98564.88;6165440;28;97229;-58
2022/09/09 13:33:45;;;;;;;;;13.50;13.50;;;;;34.42;22.97;98567.25;6165755;28;97606;-58
2022/09/09 13:36:49;;;;;;;;;12.50;12.50;;;;;34.43;23.19;98560.47;6164958;28;96809;-56
2022/09/09 13:39:54;;;;;;;;;15.00;14.60;;;;;34.53;23.15;98568.97;6161557;28;97404;-60
2022/09/09 13:42:59;;;;;;;;;12.00;12.00;;;;;34.35;22.74;98543.63;6165847;28;97339;-60
2022/09/09 13:46:05;;;;;;;;;11.60;11.00;;;;;34.41;22.98;98557.25;6165227;28;96541;-62
2022/09/09 13:49:23;;;;;;;;;14.00;14.00;;;;;34.28;22.57;98557.56;6165292;28;96979;-57
2022/09/09 13:52:31;;;;;;;;;8.60;8.60;;;;;34.19;22.87;98550.69;6165135;28;97169;-62
2022/09/09 13:55:34;;;;;;;;;12.60;12.60;;;;;34.08;22.76;98556.16;6164759;28;97492;-60
2022/09/09 13:58:37;;;;;;;;;18.60;18.00;;;;;33.96;22.86;98550.84;6165039;28;97083;-58
2022/09/09 14:01:41;;;;;;;;;24.40;23.40;;;;;33.83;22.70;98555.91;6164430;28;97512;-63
2022/09/09 14:04:47;;;;;;;;;20.00;19.00;;;;;33.70;22.71;98551.78;6163133;28;97068;-55
2022/09/09 14:07:51;;;;;;;;;17.00;17.00;;;;;33.62;22.46;98554.84;6165210;28;96848;-61
2022/09/09 14:10:57;;;;;;;;;14.00;13.50;;;;;33.55;22.61;98546.38;6164557;28;96672;-60
2022/09/09 14:14:00;;;;;;;;;17.00;17.00;;;;;33.46;22.56;98544.69;6164650;28;96540;-61
2022/09/09 14:17:04;;;;;;;;;26.00;25.00;;;;;33.37;22.50;98551.75;6164382;28;97450;-60
2022/09/09 14:20:15;;;;;;;;;16.00;16.00;;;;;33.30;23.07;98546.88;6164425;28;96906;-59
2022/09/09 14:23:18;;;;;;;;;20.60;20.60;;;;;33.20;22.94;98538.34;6164497;28;96902;-58
2022/09/09 14:26:23;;;;;;;;;18.00;18.00;;;;;33.14;23.73;98539.84;6163477;28;97799;-59
2022/09/09 14:29:26;;;;;;;;;15.00;14.80;;;;;33.08;24.09;98539.41;6164403;28;97424;-60
2022/09/09 14:32:30;;;;;;;;;17.40;17.00;;;;;33.03;23.97;98539.72;6164432;28;97552;-57